Time;durP1;ratioP1;P1;durP2;ratioP2;P2;SDS_P1;SDS_P2;PMS_P1;PMS_P2;Temp;Humidity;BMP_temperature;BMP_pressure;BME280_temperature;BME280_humidity;BME280_pressure;Samples;Min_cycle;Max_cycle;Signal;HPM_P1;HPM_P2
2022/02/07 00:01:42;;;;;;;6.47;1.10;;;;;11.10;100549.00;;;;5031586;28;20246;-88
2022/02/07 00:04:15;;;;;;;6.65;0.98;;;;;11.00;100550.00;;;;5030894;28;20199;-89
2022/02/07 00:06:44;;;;;;;4.43;0.95;;;;;11.00;100552.00;;;;5031616;28;20208;-88
2022/02/07 00:09:12;;;;;;;5.00;1.13;;;;;11.00;100548.00;;;;5026543;28;20742;-88
2022/02/07 00:11:45;;;;;;;7.03;1.42;;;;;10.90;100559.00;;;;5014797;28;20200;-86
2022/02/07 00:14:13;;;;;;;7.40;0.93;;;;;10.90;100570.00;;;;5030304;28;20208;-88
2022/02/07 00:16:42;;;;;;;7.45;1.35;;;;;10.90;100570.00;;;;5031211;28;20211;-88
2022/02/07 00:19:11;;;;;;;2.45;0.60;;;;;10.90;100589.00;;;;5029979;28;20232;-88
2022/02/07 00:21:39;;;;;;;5.38;1.30;;;;;10.90;100586.00;;;;5029861;28;20331;-88
2022/02/07 00:24:08;;;;;;;4.30;0.60;;;;;10.90;100604.00;;;;5030108;28;20188;-90
2022/02/07 00:26:35;;;;;;;7.45;1.08;;;;;10.90;100613.00;;;;5022807;28;20201;-88
2022/02/07 00:29:02;;;;;;;2.67;0.50;;;;;10.80;100632.00;;;;5025426;28;20199;-86
2022/02/07 00:31:29;;;;;;;13.00;0.90;;;;;10.90;100643.00;;;;5029514;28;20220;-87
2022/02/07 00:33:58;;;;;;;2.50;0.70;;;;;10.90;100649.00;;;;5031430;28;20223;-89
2022/02/07 00:36:32;;;;;;;6.95;1.17;;;;;10.80;100652.00;;;;5030821;28;20196;-91
2022/02/07 00:39:06;;;;;;;5.60;0.75;;;;;10.90;100695.00;;;;5030622;28;20203;-87
2022/02/07 00:41:45;;;;;;;4.38;0.55;;;;;10.90;100733.00;;;;5031171;28;20233;-87
2022/02/07 00:44:15;;;;;;;5.47;1.05;;;;;10.80;100795.00;;;;5027843;28;20226;-84
2022/02/07 00:46:49;;;;;;;2.63;0.70;;;;;10.50;100751.00;;;;5028048;28;20192;-83
2022/02/07 00:49:19;;;;;;;2.95;0.60;;;;;10.30;100753.00;;;;5027433;28;20228;-84
2022/02/07 00:51:47;;;;;;;2.65;0.57;;;;;10.10;100742.00;;;;5027890;28;20196;-83
2022/02/07 00:54:14;;;;;;;3.95;0.30;;;;;9.90;100746.00;;;;5028460;28;20288;-84
2022/02/07 00:56:43;;;;;;;2.35;0.20;;;;;9.80;100735.00;;;;5027098;28;20284;-83
2022/02/07 00:59:10;;;;;;;1.38;0.30;;;;;9.70;100743.00;;;;5028040;28;20207;-84
2022/02/07 01:01:38;;;;;;;0.35;0.10;;;;;9.50;100746.00;;;;5013471;28;20225;-82
2022/02/07 01:04:06;;;;;;;1.38;0.40;;;;;9.40;100753.00;;;;5026344;28;20212;-82
2022/02/07 01:06:33;;;;;;;0.57;0.00;;;;;9.40;100759.00;;;;5024892;28;20748;-82
2022/02/07 01:11:59;;;;;;;0.95;0.25;;;;;9.20;100776.00;;;;5017941;28;20684;-82
2022/02/07 01:14:38;;;;;;;0.55;0.20;;;;;9.10;100791.00;;;;5025447;28;20232;-83
2022/02/07 01:18:01;;;;;;;1.73;0.20;;;;;9.10;100788.00;;;;5016502;28;20201;-83
2022/02/07 01:21:02;;;;;;;1.58;0.47;;;;;9.00;100804.00;;;;5018621;28;20227;-82
2022/02/07 01:46:26;;;;;;;4.53;0.73;;;;;9.00;100905.00;;;;5031381;28;20200;-82
2022/02/07 01:49:24;;;;;;;5.22;0.73;;;;;9.00;100915.00;;;;5021927;28;20191;-82
2022/02/07 01:52:05;;;;;;;3.58;0.40;;;;;9.00;100929.00;;;;5030439;28;20204;-83
2022/02/07 01:54:39;;;;;;;2.72;0.60;;;;;9.10;100947.00;;;;5031412;28;20206;-82
2022/02/07 01:57:09;;;;;;;3.35;0.70;;;;;9.10;100945.00;;;;5031201;28;20200;-82
2022/02/07 01:59:37;;;;;;;1.80;0.30;;;;;9.20;100961.00;;;;5030898;28;20573;-83
2022/02/07 02:02:07;;;;;;;4.22;0.80;;;;;9.20;100972.00;;;;5030589;28;20220;-82
2022/02/07 02:04:34;;;;;;;2.90;0.60;;;;;9.30;100974.00;;;;5031428;28;20201;-82
2022/02/07 02:07:03;;;;;;;3.08;0.73;;;;;9.30;100990.00;;;;5030257;28;20188;-82
2022/02/07 02:09:30;;;;;;;3.15;0.43;;;;;9.30;100988.00;;;;5029950;28;20200;-82
2022/02/07 02:11:58;;;;;;;4.70;0.65;;;;;9.40;101003.00;;;;5030703;28;20201;-82
2022/02/07 02:14:38;;;;;;;3.22;0.70;;;;;9.40;100993.00;;;;5030835;28;20203;-83
2022/02/07 02:17:36;;;;;;;7.00;1.17;;;;;9.40;101010.00;;;;5030544;28;20278;-83
2022/02/07 02:32:38;;;;;;;1.98;0.82;;;;;9.50;101022.00;;;;5029438;28;20681;-82
2022/02/07 02:37:13;;;;;;;5.97;1.05;;;;;9.70;101059.00;;;;5005020;28;20239;-83
2022/02/07 02:45:29;;;;;;;4.25;1.50;;;;;9.90;101085.00;;;;5029743;28;20211;-84
2022/02/07 02:47:58;;;;;;;6.35;1.00;;;;;9.90;101092.00;;;;5030321;28;20585;-84
2022/02/07 02:50:31;;;;;;;4.88;0.70;;;;;10.00;101099.00;;;;5030545;28;20572;-83
2022/02/07 02:53:01;;;;;;;2.85;0.82;;;;;10.00;101102.00;;;;5029703;28;20662;-83
2022/02/07 02:55:30;;;;;;;5.07;1.30;;;;;10.10;101109.00;;;;5030558;28;20204;-82
2022/02/07 02:57:58;;;;;;;6.45;1.00;;;;;10.20;101113.00;;;;5030211;28;20221;-84
2022/02/07 03:00:26;;;;;;;8.32;1.30;;;;;10.20;101126.00;;;;5029568;28;20254;-82
2022/02/07 03:02:53;;;;;;;4.18;1.08;;;;;10.30;101130.00;;;;5030223;28;20197;-83
2022/02/07 03:05:20;;;;;;;7.38;1.40;;;;;10.40;101143.00;;;;5030307;28;20196;-83
2022/02/07 03:07:48;;;;;;;4.97;1.23;;;;;10.40;101144.00;;;;5029127;28;20211;-83
2022/02/07 03:10:24;;;;;;;3.95;1.40;;;;;10.50;101152.00;;;;5029763;28;20212;-83
2022/02/07 03:13:13;;;;;;;8.82;1.30;;;;;10.50;101159.00;;;;5028502;28;20195;-83
2022/02/07 03:18:26;;;;;;;7.90;1.13;;;;;10.60;101180.00;;;;5015496;28;20203;-83
2022/02/07 03:20:55;;;;;;;7.78;1.10;;;;;10.70;101161.00;;;;5028913;28;20243;-83
2022/02/07 03:23:22;;;;;;;6.03;1.25;;;;;10.70;101191.00;;;;5030547;28;20618;-83
2022/02/07 03:25:50;;;;;;;4.25;0.68;;;;;10.70;101200.00;;;;5028707;28;20203;-83
2022/02/07 03:28:20;;;;;;;6.53;1.20;;;;;10.70;101193.00;;;;5029662;28;20232;-83
2022/02/07 03:30:47;;;;;;;12.55;1.20;;;;;10.70;101202.00;;;;5029325;28;20219;-82
2022/02/07 03:33:15;;;;;;;8.18;0.88;;;;;10.80;101226.00;;;;5024170;28;20209;-84
2022/02/07 03:35:42;;;;;;;14.45;1.40;;;;;10.80;101224.00;;;;5026860;28;20197;-83
2022/02/07 03:38:10;;;;;;;6.65;1.13;;;;;10.80;101238.00;;;;5027995;28;20200;-84
2022/02/07 03:40:38;;;;;;;4.88;0.88;;;;;10.90;101242.00;;;;5028546;28;20626;-82
2022/02/07 03:43:05;;;;;;;3.38;1.17;;;;;10.90;101252.00;;;;5028059;28;20203;-84
2022/02/07 03:45:34;;;;;;;4.53;0.80;;;;;10.90;101254.00;;;;5028570;28;20227;-82
2022/02/07 03:48:02;;;;;;;4.57;0.88;;;;;11.00;101265.00;;;;5022296;28;20196;-82
2022/02/07 03:50:29;;;;;;;6.10;0.80;;;;;11.00;101260.00;;;;5024181;28;20208;-83
2022/02/07 03:52:57;;;;;;;3.60;0.80;;;;;11.10;101285.00;;;;5028718;28;20192;-84
2022/02/07 03:55:24;;;;;;;6.38;1.30;;;;;11.10;101276.00;;;;5028307;28;20550;-82
2022/02/07 03:57:51;;;;;;;4.28;1.02;;;;;11.10;101287.00;;;;5028719;28;20200;-82
2022/02/07 04:00:19;;;;;;;4.00;1.00;;;;;11.20;101290.00;;;;5028744;28;20200;-82
2022/02/07 04:02:51;;;;;;;4.32;1.48;;;;;11.20;101305.00;;;;5028736;28;20221;-82
2022/02/07 04:05:43;;;;;;;5.07;0.85;;;;;11.20;101312.00;;;;5028330;28;20258;-83
2022/02/07 04:08:12;;;;;;;2.88;0.90;;;;;11.20;101321.00;;;;5019357;28;20274;-82
2022/02/07 04:10:51;;;;;;;5.80;1.05;;;;;11.20;101331.00;;;;5028227;28;20279;-84
2022/02/07 04:13:25;;;;;;;5.05;1.55;;;;;11.30;101338.00;;;;5022549;28;20218;-83
2022/02/07 04:15:54;;;;;;;3.47;1.00;;;;;11.30;101350.00;;;;5026841;28;20206;-84
2022/02/07 04:18:24;;;;;;;6.47;1.00;;;;;11.30;101351.00;;;;5028502;28;20184;-84
2022/02/07 04:20:51;;;;;;;7.53;1.42;;;;;11.30;101364.00;;;;5027351;28;20228;-83
2022/02/07 04:23:19;;;;;;;3.97;0.70;;;;;11.40;101365.00;;;;5027924;28;20211;-83
2022/02/07 04:25:46;;;;;;;7.43;1.15;;;;;11.40;101384.00;;;;5023261;28;20188;-83
2022/02/07 04:28:13;;;;;;;6.47;0.93;;;;;11.50;101384.00;;;;5028662;28;20208;-83
2022/02/07 04:30:41;;;;;;;5.93;1.27;;;;;11.50;101397.00;;;;5027605;28;20231;-83
2022/02/07 04:33:08;;;;;;;4.32;0.90;;;;;11.50;101403.00;;;;5028018;28;21038;-83
2022/02/07 04:35:37;;;;;;;4.07;0.77;;;;;11.50;101434.00;;;;5029019;28;20192;-83
2022/02/07 04:38:04;;;;;;;4.95;1.42;;;;;11.60;101435.00;;;;5027567;28;20403;-83
2022/02/07 04:40:32;;;;;;;9.10;1.10;;;;;11.60;101441.00;;;;5028134;28;20212;-83
2022/02/07 04:42:59;;;;;;;6.07;1.08;;;;;11.60;101444.00;;;;5024346;28;20235;-83
2022/02/07 04:45:38;;;;;;;3.58;1.52;;;;;11.50;101444.00;;;;5028196;28;20196;-83
2022/02/07 04:48:30;;;;;;;5.22;1.63;;;;;11.60;101450.00;;;;5028923;28;20192;-83
2022/02/07 04:51:38;;;;;;;6.45;1.38;;;;;11.50;101466.00;;;;5027396;28;20227;-83
2022/02/07 04:54:30;;;;;;;5.55;0.98;;;;;11.50;101453.00;;;;5024169;28;20204;-82
2022/02/07 04:57:17;;;;;;;9.70;1.73;;;;;11.50;101467.00;;;;5020652;28;20223;-83
2022/02/07 04:59:53;;;;;;;6.43;1.77;;;;;11.60;101472.00;;;;5011449;28;20577;-83
2022/02/07 05:02:27;;;;;;;3.92;0.93;;;;;11.60;101492.00;;;;5029453;28;20228;-84
2022/02/07 05:05:04;;;;;;;8.30;1.30;;;;;11.60;101501.00;;;;5012941;28;20204;-83
2022/02/07 05:16:00;;;;;;;4.38;0.85;;;;;11.60;101527.00;;;;5030421;28;20206;-83
2022/02/07 05:18:30;;;;;;;3.65;0.93;;;;;11.60;101536.00;;;;5031753;28;20192;-83
2022/02/07 05:20:57;;;;;;;4.43;1.05;;;;;11.60;101549.00;;;;5030664;28;20228;-83
2022/02/07 05:23:26;;;;;;;4.18;0.95;;;;;11.60;101552.00;;;;5031077;28;20689;-83
2022/02/07 05:25:53;;;;;;;7.45;1.58;;;;;11.70;101551.00;;;;5029685;28;20207;-84
2022/02/07 05:28:21;;;;;;;6.38;1.50;;;;;11.70;101563.00;;;;5028948;28;20204;-84
2022/02/07 05:30:49;;;;;;;6.05;1.13;;;;;11.70;101567.00;;;;5030768;28;20220;-84
2022/02/07 05:33:16;;;;;;;9.23;1.00;;;;;11.70;101575.00;;;;5030666;28;20193;-84
2022/02/07 05:35:43;;;;;;;9.95;1.63;;;;;11.70;101576.00;;;;5032081;28;20200;-84
2022/02/07 05:38:10;;;;;;;4.10;0.93;;;;;11.70;101583.00;;;;5031269;28;20197;-84
2022/02/07 05:40:44;;;;;;;5.10;1.15;;;;;11.60;101591.00;;;;5031344;28;20279;-83
2022/02/07 05:43:14;;;;;;;6.38;0.95;;;;;11.60;101596.00;;;;5030670;28;20251;-85
2022/02/07 05:45:41;;;;;;;5.68;1.02;;;;;11.60;101591.00;;;;5027229;28;20608;-84
2022/02/07 05:48:09;;;;;;;4.53;1.20;;;;;11.60;101612.00;;;;5030978;28;20662;-84
2022/02/07 05:50:36;;;;;;;6.57;0.98;;;;;11.60;101607.00;;;;5028523;28;20208;-84
2022/02/07 05:53:03;;;;;;;4.88;1.00;;;;;11.50;101604.00;;;;5025430;28;20193;-83
2022/02/07 05:55:31;;;;;;;2.72;0.55;;;;;11.50;101598.00;;;;5024761;28;20292;-84
2022/02/07 05:58:00;;;;;;;4.03;0.73;;;;;11.50;101618.00;;;;5018340;28;20193;-83
2022/02/07 06:00:32;;;;;;;4.63;0.77;;;;;11.50;101626.00;;;;5028242;28;20213;-84
2022/02/07 06:03:00;;;;;;;3.80;1.08;;;;;11.50;101646.00;;;;5028877;28;20310;-85
2022/02/07 06:05:27;;;;;;;6.07;1.73;;;;;11.50;101643.00;;;;5025222;28;20208;-84
2022/02/07 06:07:55;;;;;;;4.78;1.42;;;;;11.50;101648.00;;;;5028845;28;20207;-84
2022/02/07 06:10:23;;;;;;;4.95;0.80;;;;;11.50;101648.00;;;;5022811;28;20200;-84
2022/02/07 06:12:51;;;;;;;3.90;1.23;;;;;11.50;101648.00;;;;5026423;28;20200;-85
2022/02/07 06:15:19;;;;;;;6.85;1.15;;;;;11.50;101656.00;;;;5028362;28;20200;-85
2022/02/07 06:17:49;;;;;;;4.72;1.23;;;;;11.50;101661.00;;;;5016204;28;20199;-84
2022/02/07 06:20:17;;;;;;;5.00;1.10;;;;;11.50;101670.00;;;;5022144;28;20235;-84
2022/02/07 06:22:45;;;;;;;5.85;1.40;;;;;11.50;101674.00;;;;5027172;28;20228;-85
2022/02/07 06:25:12;;;;;;;6.57;0.98;;;;;11.50;101674.00;;;;5027516;28;20194;-85
2022/02/07 06:27:41;;;;;;;8.63;1.55;;;;;11.50;101681.00;;;;5030005;28;20192;-84
2022/02/07 06:30:10;;;;;;;11.98;1.50;;;;;11.50;101682.00;;;;5027555;28;20205;-84
2022/02/07 06:32:39;;;;;;;6.63;1.13;;;;;11.50;101689.00;;;;5028182;28;20649;-84
2022/02/07 06:35:07;;;;;;;2.50;0.70;;;;;11.50;101690.00;;;;5029259;28;20738;-83
2022/02/07 06:37:35;;;;;;;5.10;1.35;;;;;11.50;101705.00;;;;5028480;28;20199;-83
2022/02/07 06:40:03;;;;;;;9.02;1.15;;;;;11.50;101703.00;;;;5026083;28;20197;-83
2022/02/07 06:42:30;;;;;;;7.93;1.33;;;;;11.50;101708.00;;;;5011145;28;20228;-83
2022/02/07 06:44:57;;;;;;;5.68;1.00;;;;;11.50;101720.00;;;;5028076;28;20815;-83
2022/02/07 06:47:25;;;;;;;5.60;1.08;;;;;11.50;101721.00;;;;5031163;28;20574;-83
2022/02/07 06:49:54;;;;;;;7.15;1.25;;;;;11.40;101719.00;;;;5029459;28;20188;-83
2022/02/07 06:52:21;;;;;;;6.32;0.85;;;;;11.40;101723.00;;;;5028788;28;20204;-84
2022/02/07 06:54:48;;;;;;;8.13;1.90;;;;;11.40;101727.00;;;;5029739;28;20223;-83
2022/02/07 06:57:19;;;;;;;8.63;1.50;;;;;11.40;101735.00;;;;5025209;28;20224;-83
2022/02/07 06:59:47;;;;;;;6.38;1.05;;;;;11.40;101733.00;;;;5026362;28;20270;-84
2022/02/07 07:02:15;;;;;;;4.05;0.90;;;;;11.40;101738.00;;;;5028762;28;20236;-84
2022/02/07 07:04:42;;;;;;;6.10;1.50;;;;;11.40;101740.00;;;;5027082;28;20196;-83
2022/02/07 07:07:13;;;;;;;9.65;1.27;;;;;11.40;101752.00;;;;5026835;28;20196;-81
2022/02/07 07:09:43;;;;;;;6.55;1.60;;;;;11.40;101761.00;;;;5023217;28;20204;-82
2022/02/07 07:12:11;;;;;;;3.22;0.80;;;;;11.40;101782.00;;;;5026719;28;20197;-79
2022/02/07 07:14:45;;;;;;;6.60;1.05;;;;;11.40;101794.00;;;;5021403;28;20200;-79
2022/02/07 07:17:12;;;;;;;3.92;1.00;;;;;11.40;101797.00;;;;5028576;28;20662;-81
2022/02/07 07:19:39;;;;;;;6.25;1.73;;;;;11.40;101802.00;;;;5027782;28;20717;-82
2022/02/07 07:22:07;;;;;;;3.50;0.98;;;;;11.40;101793.00;;;;5027698;28;20941;-81
2022/02/07 07:24:37;;;;;;;4.47;0.77;;;;;11.30;101811.00;;;;5028643;28;20203;-81
2022/02/07 07:27:05;;;;;;;7.32;2.25;;;;;11.40;101828.00;;;;5029435;28;20430;-81
2022/02/07 07:29:37;;;;;;;6.10;1.48;;;;;11.40;101833.00;;;;5030216;28;20210;-81
2022/02/07 07:32:06;;;;;;;6.57;1.33;;;;;11.40;101842.00;;;;5023090;28;20227;-84
2022/02/07 07:34:35;;;;;;;5.25;0.95;;;;;11.40;101851.00;;;;5026681;28;20219;-83
2022/02/07 07:37:02;;;;;;;6.07;1.17;;;;;11.40;101869.00;;;;5028899;28;20729;-84
2022/02/07 07:39:30;;;;;;;4.28;1.00;;;;;11.50;101879.00;;;;5029510;28;20203;-84
2022/02/07 07:42:00;;;;;;;6.53;1.40;;;;;11.50;101876.00;;;;5028786;28;20220;-84
2022/02/07 07:44:33;;;;;;;9.27;1.50;;;;;11.50;101888.00;;;;5028501;28;20201;-85
2022/02/07 07:47:08;;;;;;;5.03;1.17;;;;;11.60;101884.00;;;;5028691;28;20206;-84
2022/02/07 07:49:43;;;;;;;8.20;1.00;;;;;11.60;101894.00;;;;5026786;28;20195;-85
2022/02/07 07:52:13;;;;;;;5.80;1.20;;;;;11.60;101921.00;;;;5023858;28;20682;-82
2022/02/07 07:54:51;;;;;;;5.03;1.80;;;;;11.70;101912.00;;;;5027468;28;20623;-85
2022/02/07 08:02:53;;;;;;;4.10;0.90;;;;;11.70;101944.00;;;;5019631;28;20629;-81
2022/02/07 08:05:33;;;;;;;4.95;1.25;;;;;11.80;101944.00;;;;5024078;28;20212;-81
2022/02/07 08:08:11;;;;;;;4.65;1.25;;;;;11.70;101945.00;;;;5028827;28;20207;-82
2022/02/07 08:10:49;;;;;;;6.63;0.98;;;;;11.80;101945.00;;;;5027225;28;20211;-83
2022/02/07 08:13:19;;;;;;;8.43;1.60;;;;;11.80;101952.00;;;;5025859;28;20212;-83
2022/02/07 08:15:46;;;;;;;5.63;1.05;;;;;11.80;101953.00;;;;5024942;28;20231;-84
2022/02/07 08:18:14;;;;;;;7.75;1.75;;;;;11.80;101960.00;;;;5027094;28;20280;-84
2022/02/07 08:20:41;;;;;;;6.88;1.67;;;;;11.90;101952.00;;;;5026962;28;20645;-83
2022/02/07 08:23:10;;;;;;;5.65;1.00;;;;;11.90;101950.00;;;;5023583;28;20223;-83
2022/02/07 08:25:37;;;;;;;6.88;0.98;;;;;11.90;101947.00;;;;5023818;28;20208;-84
2022/02/07 08:28:06;;;;;;;6.20;1.63;;;;;11.90;101960.00;;;;5026836;28;20200;-83
2022/02/07 08:30:34;;;;;;;6.05;1.10;;;;;12.00;101959.00;;;;5027494;28;20208;-84
2022/02/07 08:33:03;;;;;;;4.50;1.30;;;;;12.00;101965.00;;;;5026682;28;20188;-84
2022/02/07 08:35:30;;;;;;;3.75;1.02;;;;;12.00;101968.00;;;;5026786;28;20211;-84
2022/02/07 08:37:58;;;;;;;5.78;1.45;;;;;12.00;101982.00;;;;5027710;28;20200;-81
2022/02/07 08:40:26;;;;;;;12.18;1.35;;;;;12.10;101991.00;;;;5033987;28;20589;-82
2022/02/07 08:42:54;;;;;;;7.65;0.90;;;;;12.10;102000.00;;;;5027156;28;20212;-81
2022/02/07 08:45:22;;;;;;;5.57;1.23;;;;;12.20;102009.00;;;;5027853;28;20287;-85
2022/02/07 08:47:51;;;;;;;4.45;1.10;;;;;12.20;102005.00;;;;5021764;28;20204;-84
2022/02/07 08:50:18;;;;;;;5.57;1.10;;;;;12.30;102013.00;;;;5025644;28;20200;-86
2022/02/07 08:52:49;;;;;;;4.10;1.20;;;;;12.30;102019.00;;;;5027029;28;20204;-85
2022/02/07 08:55:26;;;;;;;3.95;1.33;;;;;12.30;102024.00;;;;5027376;28;20616;-85
2022/02/07 08:57:58;;;;;;;4.32;1.25;;;;;12.30;102028.00;;;;5021140;28;20207;-82
2022/02/07 09:00:37;;;;;;;5.93;1.13;;;;;12.40;102038.00;;;;5027177;28;20309;-84
2022/02/07 09:03:22;;;;;;;11.13;1.90;;;;;12.40;102049.00;;;;5022779;28;20810;-82
2022/02/07 09:06:05;;;;;;;7.47;0.80;;;;;12.40;102056.00;;;;5025975;28;20202;-85
2022/02/07 09:11:16;;;;;;;4.18;0.82;;;;;12.50;102067.00;;;;5025381;28;20668;-84
2022/02/07 09:13:45;;;;;;;5.60;2.03;;;;;12.50;102072.00;;;;5027535;28;20203;-85
2022/02/07 09:16:29;;;;;;;6.65;1.30;;;;;12.50;102080.00;;;;5026168;28;20282;-82
2022/02/07 09:18:58;;;;;;;6.95;0.95;;;;;12.60;102098.00;;;;5025247;28;20803;-84
2022/02/07 09:21:28;;;;;;;2.83;1.05;;;;;12.70;102080.00;;;;5026820;28;20662;-84
2022/02/07 09:23:55;;;;;;;5.43;1.45;;;;;12.70;102091.00;;;;5022872;28;20235;-84
2022/02/07 09:26:23;;;;;;;8.43;1.40;;;;;12.80;102085.00;;;;5011113;28;20626;-85
2022/02/07 09:28:51;;;;;;;7.25;1.00;;;;;12.90;102087.00;;;;5025452;28;20200;-85
2022/02/07 09:31:21;;;;;;;6.47;1.65;;;;;13.00;102114.00;;;;5025798;28;20234;-84
2022/02/07 09:33:49;;;;;;;5.22;1.20;;;;;13.00;102116.00;;;;5025531;28;20200;-86
2022/02/07 09:36:18;;;;;;;2.53;0.68;;;;;13.00;102119.00;;;;5028127;28;20192;-85
2022/02/07 09:38:46;;;;;;;5.55;1.33;;;;;13.00;102122.00;;;;5025884;28;20200;-84
2022/02/07 09:41:16;;;;;;;3.60;1.17;;;;;13.00;102134.00;;;;5023048;28;20197;-85
2022/02/07 09:43:46;;;;;;;7.03;1.40;;;;;13.10;102132.00;;;;5027352;28;20235;-84
2022/02/07 09:46:21;;;;;;;6.68;1.40;;;;;13.10;102144.00;;;;5026390;28;20223;-84
2022/02/07 09:48:51;;;;;;;7.28;1.30;;;;;13.10;102148.00;;;;5013587;28;20215;-85
2022/02/07 09:51:20;;;;;;;7.57;1.38;;;;;13.20;102152.00;;;;5026101;28;20214;-84
2022/02/07 09:53:48;;;;;;;6.30;1.80;;;;;13.20;102160.00;;;;5030622;28;20315;-84
2022/02/07 09:56:17;;;;;;;7.90;1.58;;;;;13.20;102168.00;;;;5030359;28;20666;-84
2022/02/07 09:58:49;;;;;;;7.20;1.15;;;;;13.30;102177.00;;;;5028582;28;20226;-85
2022/02/07 10:01:25;;;;;;;7.25;0.95;;;;;13.30;102181.00;;;;5019635;28;20216;-84
2022/02/07 10:03:58;;;;;;;6.22;1.50;;;;;13.40;102179.00;;;;5027737;28;20306;-84
2022/02/07 10:06:42;;;;;;;6.82;1.73;;;;;13.40;102190.00;;;;5030048;28;20200;-84
2022/02/07 10:09:42;;;;;;;8.90;1.80;;;;;13.50;102195.00;;;;5026565;28;20200;-84
2022/02/07 10:12:29;;;;;;;5.38;1.40;;;;;13.50;102204.00;;;;5021577;28;20196;-83
2022/02/07 10:15:12;;;;;;;5.13;0.98;;;;;13.60;102200.00;;;;5024733;28;20200;-86
2022/02/07 10:17:51;;;;;;;5.30;0.90;;;;;13.60;102200.00;;;;5029888;28;20285;-86
2022/02/07 10:37:54;;;;;;;6.63;0.70;;;;;13.90;102257.00;;;;5036801;28;20187;-86
2022/02/07 10:40:32;;;;;;;5.55;1.35;;;;;13.90;102241.00;;;;5037630;28;20327;-87
2022/02/07 10:43:15;;;;;;;3.60;0.80;;;;;13.90;102250.00;;;;5034875;28;20216;-86
2022/02/07 10:45:59;;;;;;;7.18;0.85;;;;;13.90;102249.00;;;;5036182;28;20189;-85
2022/02/07 10:48:32;;;;;;;2.97;0.88;;;;;13.90;102242.00;;;;5017367;28;20731;-85
2022/02/07 10:51:13;;;;;;;4.50;1.27;;;;;14.00;102249.00;;;;5023382;28;20193;-84
2022/02/07 10:53:42;;;;;;;5.78;0.70;;;;;14.10;102241.00;;;;5034743;28;20811;-83
2022/02/07 10:56:12;;;;;;;4.15;1.00;;;;;14.10;102265.00;;;;5031476;28;20204;-83
2022/02/07 10:58:45;;;;;;;7.45;1.58;;;;;14.20;102255.00;;;;5035062;28;20204;-83
2022/02/07 11:01:18;;;;;;;6.65;1.58;;;;;14.20;102267.00;;;;5036931;28;20283;-86
2022/02/07 11:03:50;;;;;;;3.75;0.95;;;;;14.30;102269.00;;;;5034129;28;20224;-79
2022/02/07 11:06:25;;;;;;;5.45;1.27;;;;;14.30;102271.00;;;;5036653;28;20246;-86
2022/02/07 11:09:18;;;;;;;4.55;1.23;;;;;14.30;102267.00;;;;5033615;28;20633;-84
2022/02/07 11:12:08;;;;;;;4.95;1.10;;;;;14.50;102263.00;;;;5029245;28;20227;-80
2022/02/07 11:15:08;;;;;;;4.63;1.00;;;;;14.50;102256.00;;;;5033524;28;20206;-81
2022/02/07 11:20:44;;;;;;;5.88;1.25;;;;;14.50;102276.00;;;;5105526;27;1242311;-84
2022/02/07 11:23:25;;;;;;;4.68;1.23;;;;;14.50;102293.00;;;;5118193;28;20213;-85
2022/02/07 11:25:58;;;;;;;5.45;1.13;;;;;14.50;102280.00;;;;5113188;28;20189;-84
2022/02/07 11:28:27;;;;;;;4.97;0.77;;;;;14.50;102279.00;;;;5117883;27;20198;-83
2022/02/07 11:30:56;;;;;;;5.07;1.40;;;;;14.50;102289.00;;;;5118230;27;20217;-87
2022/02/07 11:33:54;;;;;;;4.35;1.77;;;;;14.40;102286.00;;;;5101831;28;20193;-86
2022/02/07 11:36:34;;;;;;;5.15;1.00;;;;;14.50;102288.00;;;;5101365;28;20221;-84
2022/02/07 11:39:13;;;;;;;4.63;1.08;;;;;14.50;102292.00;;;;5096671;28;20228;-86
2022/02/07 11:42:06;;;;;;;5.60;0.98;;;;;14.40;102268.00;;;;5092649;28;20193;-83
2022/02/07 11:45:24;;;;;;;4.85;0.55;;;;;14.40;102280.00;;;;5093040;28;20208;-82
2022/02/07 11:48:07;;;;;;;5.07;0.70;;;;;14.50;102286.00;;;;5099421;28;20210;-84
2022/02/07 11:50:43;;;;;;;4.22;0.65;;;;;14.40;102278.00;;;;5099233;28;20198;-84
2022/02/07 11:53:13;;;;;;;2.28;0.40;;;;;14.50;102276.00;;;;5093295;28;20198;-84
2022/02/07 11:55:47;;;;;;;3.88;0.70;;;;;14.40;102287.00;;;;5089066;28;20663;-85
2022/02/07 11:58:22;;;;;;;5.03;0.80;;;;;14.40;102282.00;;;;5096652;28;20190;-82
2022/02/07 12:00:56;;;;;;;4.75;1.13;;;;;14.40;102287.00;;;;5104421;28;20765;-87
2022/02/07 12:03:25;;;;;;;2.28;0.60;;;;;14.30;102293.00;;;;5096162;28;20200;-85
2022/02/07 12:05:57;;;;;;;6.38;0.95;;;;;14.30;102294.00;;;;5100966;28;20652;-87
2022/02/07 12:08:31;;;;;;;6.22;1.35;;;;;14.30;102296.00;;;;5085251;28;20687;-87
2022/02/07 12:11:12;;;;;;;3.85;0.75;;;;;14.30;102296.00;;;;5093598;28;20243;-87
2022/02/07 12:13:42;;;;;;;7.35;1.88;;;;;14.30;102295.00;;;;5092540;28;20229;-87
2022/02/07 12:16:16;;;;;;;3.17;0.40;;;;;14.40;102292.00;;;;5091518;28;20210;-83
2022/02/07 12:18:46;;;;;;;3.13;0.85;;;;;14.40;102298.00;;;;5099129;28;20234;-87
2022/02/07 12:21:16;;;;;;;2.83;1.10;;;;;14.50;102288.00;;;;5095431;28;20571;-85
2022/02/07 12:23:49;;;;;;;5.50;1.05;;;;;14.40;102305.00;;;;5093548;28;20674;-86
2022/02/07 12:26:17;;;;;;;9.02;0.75;;;;;14.40;102303.00;;;;5097543;28;20202;-87
2022/02/07 12:28:49;;;;;;;6.45;0.98;;;;;14.40;102310.00;;;;5104792;28;20633;-87
2022/02/07 12:31:20;;;;;;;4.00;0.70;;;;;14.40;102312.00;;;;5088620;28;20558;-86
2022/02/07 12:33:53;;;;;;;2.80;0.80;;;;;14.50;102316.00;;;;5079490;28;20248;-86
2022/02/07 12:36:21;;;;;;;3.60;0.95;;;;;14.50;102311.00;;;;5076491;28;20202;-84
2022/02/07 12:38:53;;;;;;;3.78;0.70;;;;;14.40;102322.00;;;;5088333;28;20218;-87
2022/02/07 12:41:23;;;;;;;8.05;1.42;;;;;14.40;102324.00;;;;5092396;28;20203;-87
2022/02/07 12:43:53;;;;;;;5.07;1.05;;;;;14.40;102323.00;;;;5080965;28;20203;-86
2022/02/07 12:46:24;;;;;;;9.88;1.52;;;;;14.50;102320.00;;;;5080557;28;20234;-86
2022/02/07 12:48:56;;;;;;;3.65;1.05;;;;;14.50;102336.00;;;;5085436;28;20197;-85
2022/02/07 12:51:25;;;;;;;2.50;0.57;;;;;14.60;102339.00;;;;5096140;28;20225;-86
2022/02/07 12:53:55;;;;;;;5.20;1.35;;;;;14.60;102341.00;;;;5084998;28;20205;-86
2022/02/07 12:56:24;;;;;;;6.15;1.55;;;;;14.60;102332.00;;;;5075914;28;20190;-87
2022/02/07 12:58:54;;;;;;;5.03;1.10;;;;;14.60;102336.00;;;;5084004;28;20229;-83
2022/02/07 13:01:24;;;;;;;7.65;1.00;;;;;14.60;102330.00;;;;5080899;28;20195;-83
2022/02/07 13:03:54;;;;;;;2.80;0.65;;;;;14.70;102337.00;;;;5071659;28;20199;-86
2022/02/07 13:06:27;;;;;;;11.60;1.02;;;;;14.70;102332.00;;;;5084514;28;20579;-87
2022/02/07 13:08:58;;;;;;;2.92;0.50;;;;;14.80;102341.00;;;;5084291;28;20228;-86
2022/02/07 13:11:28;;;;;;;3.83;0.80;;;;;14.80;102349.00;;;;5085232;28;20277;-85
2022/02/07 13:13:56;;;;;;;4.07;0.55;;;;;14.90;102365.00;;;;5088558;28;20192;-86
2022/02/07 13:16:25;;;;;;;8.98;0.88;;;;;14.90;102368.00;;;;5077946;28;20201;-86
2022/02/07 13:18:52;;;;;;;5.68;0.82;;;;;15.00;102361.00;;;;5081347;28;20198;-87
2022/02/07 13:21:19;;;;;;;3.70;0.75;;;;;15.20;102364.00;;;;5085865;28;20304;-86
2022/02/07 13:23:48;;;;;;;4.20;0.52;;;;;15.40;102367.00;;;;5083824;28;20285;-86
2022/02/07 13:26:18;;;;;;;4.00;0.98;;;;;15.60;102373.00;;;;5078060;28;20191;-87
2022/02/07 13:28:46;;;;;;;2.72;0.70;;;;;15.70;102392.00;;;;5080382;28;20196;-86
2022/02/07 13:31:13;;;;;;;3.08;0.60;;;;;15.70;102375.00;;;;5086032;28;20214;-85
2022/02/07 13:33:49;;;;;;;1.42;0.50;;;;;16.00;102369.00;;;;5078916;28;20213;-85
2022/02/07 13:36:28;;;;;;;3.60;0.57;;;;;16.30;102371.00;;;;5088034;28;20210;-85
2022/02/07 13:39:03;;;;;;;2.47;0.73;;;;;16.70;102378.00;;;;5084675;28;20236;-85
2022/02/07 13:41:32;;;;;;;2.45;0.60;;;;;16.90;102373.00;;;;5069575;28;20579;-84
2022/02/07 13:44:00;;;;;;;4.97;1.20;;;;;17.00;102368.00;;;;5077833;28;20208;-83
2022/02/07 13:46:30;;;;;;;5.80;1.23;;;;;17.00;102381.00;;;;5087138;28;20205;-85
2022/02/07 13:48:59;;;;;;;2.00;0.55;;;;;17.00;102391.00;;;;5086526;28;20605;-85
2022/02/07 13:51:27;;;;;;;2.35;0.50;;;;;16.90;102396.00;;;;5084214;28;20198;-85
2022/02/07 13:53:56;;;;;;;4.40;0.43;;;;;16.90;102384.00;;;;5088848;28;20251;-85
2022/02/07 13:56:33;;;;;;;3.22;0.70;;;;;16.80;102383.00;;;;5090056;28;20286;-87
2022/02/07 13:59:15;;;;;;;3.42;0.60;;;;;16.80;102402.00;;;;5072773;28;20717;-86